Time;durP1;ratioP1;P1;durP2;ratioP2;P2;SDS_P1;SDS_P2;PMS_P1;PMS_P2;Temp;Humidity;BMP_temperature;BMP_pressure;BME280_temperature;BME280_humidity;BME280_pressure;Samples;Min_cycle;Max_cycle;Signal;HPM_P1;HPM_P2
2021/06/17 00:00:46;;;;;;;;;13.00;13.00;;;;;31.07;40.24;99895.66;5003405;28;45391;-76
2021/06/17 00:03:11;;;;;;;;;16.25;15.25;;;;;31.09;40.11;99901.75;4968066;28;45913;-75
2021/06/17 00:05:37;;;;;;;;;13.50;12.00;;;;;31.05;40.16;99898.50;5019632;28;59398;-75
2021/06/17 00:08:05;;;;;;;;;14.25;13.25;;;;;31.08;40.27;99900.06;4968052;28;45259;-75
2021/06/17 00:10:30;;;;;;;;;13.25;13.25;;;;;31.07;40.60;99901.06;4974282;28;45469;-75
2021/06/17 00:12:57;;;;;;;;;18.25;15.50;;;;;31.06;39.74;99904.75;5003845;28;45862;-75
2021/06/17 00:15:23;;;;;;;;;13.25;13.25;;;;;31.04;40.34;99896.81;4983928;28;46077;-75
2021/06/17 00:17:48;;;;;;;;;14.50;13.00;;;;;31.05;40.09;99905.75;4996848;28;45376;-75
2021/06/17 00:20:14;;;;;;;;;12.50;12.50;;;;;31.03;40.26;99905.88;5007109;28;45223;-75
2021/06/17 00:22:40;;;;;;;;;18.75;16.00;;;;;31.03;40.21;99903.19;4983606;28;45291;-75
2021/06/17 00:25:06;;;;;;;;;16.00;15.00;;;;;31.03;40.22;99900.50;4983858;28;45266;-75
2021/06/17 00:27:31;;;;;;;;;14.00;13.00;;;;;31.04;39.89;99904.03;5014065;28;45430;-75
2021/06/17 00:29:57;;;;;;;;;14.50;13.25;;;;;31.02;40.14;99906.03;5001923;28;45703;-75
2021/06/17 00:32:50;;;;;;;;;17.75;17.75;;;;;31.02;41.06;99898.78;4980037;28;45864;-75
2021/06/17 00:35:16;;;;;;;;;16.00;15.00;;;;;30.97;40.05;99878.63;4993562;28;47587;-75
2021/06/17 00:37:41;;;;;;;;;14.00;14.00;;;;;31.01;40.33;99869.25;5004390;28;52244;-75
2021/06/17 00:40:09;;;;;;;;;15.25;14.25;;;;;31.00;40.01;99876.50;4983851;28;45379;-75
2021/06/17 00:42:36;;;;;;;;;14.00;13.25;;;;;31.00;39.92;99860.31;4983448;28;45452;-75
2021/06/17 00:45:01;;;;;;;;;14.75;13.25;;;;;30.99;40.18;99852.38;5001054;28;47390;-75
2021/06/17 00:47:27;;;;;;;;;13.75;12.75;;;;;30.98;40.19;99845.28;4996871;28;45356;-75
2021/06/17 00:49:52;;;;;;;;;13.75;13.00;;;;;30.97;39.91;99839.03;4977433;28;45428;-75
2021/06/17 00:52:18;;;;;;;;;16.25;14.25;;;;;31.00;41.27;99829.81;5015243;28;58183;-75
2021/06/17 00:54:43;;;;;;;;;13.25;13.00;;;;;30.99;40.32;99820.03;4993211;28;46817;-75
2021/06/17 00:57:09;;;;;;;;;12.00;12.00;;;;;30.98;40.75;99813.78;4985740;28;69284;-75
2021/06/17 01:00:00;;;;;;;;;15.75;14.25;;;;;30.98;40.61;99818.34;5003922;28;45414;-75
2021/06/17 01:02:25;;;;;;;;;13.25;13.25;;;;;31.00;40.71;99830.69;4980316;28;45342;-76
2021/06/17 01:04:51;;;;;;;;;14.75;13.75;;;;;30.97;39.94;99824.72;5001126;28;45358;-75
2021/06/17 01:07:30;;;;;;;;;16.00;16.00;;;;;31.00;40.54;99821.72;4983304;28;45382;-75
2021/06/17 01:10:15;;;;;;;;;15.50;14.75;;;;;31.00;40.49;99814.50;4983646;28;45417;-75
2021/06/17 01:13:21;;;;;;;;;15.00;14.25;;;;;31.00;40.38;99819.03;4985087;28;45249;-75
2021/06/17 01:15:55;;;;;;;;;14.00;14.00;;;;;30.97;40.25;99814.78;5010467;28;46656;-75
2021/06/17 01:18:20;;;;;;;;;17.75;13.25;;;;;30.97;40.23;99819.34;4987183;28;45280;-75
2021/06/17 01:20:52;;;;;;;;;13.00;13.00;;;;;30.97;40.59;99805.84;5002644;28;47128;-75
2021/06/17 01:23:35;;;;;;;;;12.75;12.75;;;;;30.95;40.30;99814.09;5002135;28;45412;-75
2021/06/17 01:26:20;;;;;;;;;11.50;11.50;;;;;30.94;39.54;99824.00;4951307;28;47539;-75
2021/06/17 01:28:46;;;;;;;;;12.00;12.00;;;;;30.92;39.70;99833.22;4982926;28;45395;-75
2021/06/17 01:31:12;;;;;;;;;13.00;13.00;;;;;30.92;40.04;99841.28;4982972;28;45369;-75
2021/06/17 01:33:40;;;;;;;;;13.75;13.50;;;;;30.94;39.64;99825.84;5000888;28;45433;-75
2021/06/17 01:36:09;;;;;;;;;16.75;15.75;;;;;30.89;39.65;99828.09;4982867;28;45666;-75
2021/06/17 01:38:35;;;;;;;;;16.00;13.25;;;;;30.91;40.03;99836.91;4957546;28;45481;-75
2021/06/17 01:41:01;;;;;;;;;15.00;15.00;;;;;30.88;40.61;99856.91;4969928;28;45425;-75
2021/06/17 01:43:26;;;;;;;;;13.75;13.00;;;;;30.83;40.75;99909.47;4992581;28;45447;-75
2021/06/17 01:45:52;;;;;;;;;14.75;12.00;;;;;30.90;40.57;100040.00;4998853;28;46216;-75
2021/06/17 01:48:26;;;;;;;;;17.00;14.75;;;;;30.83;40.44;100072.00;4966535;28;45552;-76
2021/06/17 01:50:54;;;;;;;;;12.25;12.00;;;;;30.81;41.10;100084.75;4953715;28;45348;-75
2021/06/17 01:53:21;;;;;;;;;7.25;6.75;;;;;30.61;43.50;100113.38;4970031;28;45500;-75
2021/06/17 01:55:47;;;;;;;;;11.00;9.50;;;;;30.38;48.25;100136.81;5002172;28;45246;-75
2021/06/17 01:58:13;;;;;;;;;8.25;7.25;;;;;30.21;43.58;100164.28;4985722;28;47712;-76
2021/06/17 02:00:40;;;;;;;;;6.75;4.75;;;;;30.10;46.43;100142.78;4996825;28;45474;-76
2021/06/17 02:03:06;;;;;;;;;6.75;6.00;;;;;30.01;45.06;100060.06;4965725;28;45528;-76
2021/06/17 02:05:33;;;;;;;;;8.25;6.50;;;;;29.86;46.27;100032.59;4965951;28;47856;-76
2021/06/17 02:07:59;;;;;;;;;6.75;6.75;;;;;29.80;44.70;100030.44;4962089;28;45313;-76
2021/06/17 02:10:24;;;;;;;;;9.50;8.25;;;;;29.77;44.21;100012.69;4986126;28;45289;-76
2021/06/17 02:12:49;;;;;;;;;12.00;9.25;;;;;29.73;45.16;100005.00;4966076;28;45668;-75
2021/06/17 02:15:15;;;;;;;;;9.00;7.75;;;;;29.70;44.91;100000.72;4984185;28;47335;-76
2021/06/17 02:17:41;;;;;;;;;10.25;7.25;;;;;29.69;44.94;99998.16;5007722;28;45293;-75
2021/06/17 02:20:08;;;;;;;;;7.75;7.25;;;;;29.66;44.86;100007.34;4982311;28;45255;-76
2021/06/17 02:22:33;;;;;;;;;9.00;9.00;;;;;29.63;44.84;100029.13;4978245;28;46179;-76
2021/06/17 02:24:59;;;;;;;;;9.00;7.50;;;;;29.62;45.24;100059.66;4985671;28;46560;-76
2021/06/17 02:27:28;;;;;;;;;9.75;7.00;;;;;29.63;44.81;100186.94;4985466;28;45349;-76
2021/06/17 02:29:54;;;;;;;;;10.25;9.50;;;;;29.69;44.84;100237.53;5018286;28;45337;-75
2021/06/17 02:32:20;;;;;;;;;8.00;8.00;;;;;29.76;45.04;100297.97;4973201;28;45297;-76
2021/06/17 02:34:47;;;;;;;;;7.75;7.75;;;;;29.70;45.87;100293.91;5001273;28;46524;-76
2021/06/17 02:37:14;;;;;;;;;8.00;8.00;;;;;29.63;45.52;100287.31;5002075;28;45364;-75
2021/06/17 02:39:39;;;;;;;;;8.25;7.75;;;;;29.59;45.48;100287.66;4985351;28;45354;-76
2021/06/17 02:42:05;;;;;;;;;9.25;9.25;;;;;29.58;45.45;100275.19;4985512;28;46110;-76
2021/06/17 02:44:31;;;;;;;;;9.25;7.25;;;;;29.55;45.39;100230.56;4985240;28;45424;-75
2021/06/17 02:46:56;;;;;;;;;11.00;7.50;;;;;29.53;45.08;100227.13;4982112;28;45457;-76
2021/06/17 02:49:22;;;;;;;;;10.50;10.00;;;;;29.52;45.43;100214.66;4997901;28;56867;-76
2021/06/17 02:51:47;;;;;;;;;11.00;8.00;;;;;29.57;44.92;100192.78;5001278;28;51982;-76
2021/06/17 02:54:18;;;;;;;;;12.00;9.00;;;;;29.55;45.32;100187.53;5002209;28;46068;-76
2021/06/17 02:57:10;;;;;;;;;10.00;9.25;;;;;29.51;45.92;100197.66;4982856;28;45278;-76
2021/06/17 03:00:08;;;;;;;;;9.25;8.00;;;;;29.54;45.55;100167.00;4987221;28;45508;-76
2021/06/17 03:02:52;;;;;;;;;8.25;8.25;;;;;29.51;45.62;100161.84;4973284;28;45460;-76
2021/06/17 03:05:20;;;;;;;;;8.25;7.25;;;;;29.44;45.71;100137.25;4982500;28;47210;-76
2021/06/17 03:08:08;;;;;;;;;11.00;11.00;;;;;29.43;45.40;100119.41;4998086;28;45436;-76
2021/06/17 03:10:33;;;;;;;;;9.00;9.00;;;;;29.38;45.44;100093.88;4985263;28;45440;-76
2021/06/17 03:13:01;;;;;;;;;11.00;10.75;;;;;29.34;45.91;100063.69;4962303;28;45518;-76
2021/06/17 03:15:30;;;;;;;;;9.00;9.00;;;;;29.35;45.94;100069.91;5002836;28;45305;-76
2021/06/17 03:17:55;;;;;;;;;10.00;10.00;;;;;29.28;45.89;100059.66;4991197;28;45366;-76
2021/06/17 03:20:20;;;;;;;;;8.00;8.00;;;;;29.27;45.39;100067.81;4968956;28;45507;-76
2021/06/17 03:22:51;;;;;;;;;9.25;7.00;;;;;29.25;45.61;100075.16;4985067;28;45537;-76
2021/06/17 03:25:18;;;;;;;;;9.25;8.50;;;;;29.21;45.78;100084.47;4976370;28;48434;-76
2021/06/17 03:27:44;;;;;;;;;8.00;8.00;;;;;29.22;46.19;100078.94;4981339;28;45263;-76
2021/06/17 03:30:10;;;;;;;;;9.75;6.75;;;;;29.17;45.81;100080.28;4965402;28;45311;-76
2021/06/17 03:32:35;;;;;;;;;9.50;8.50;;;;;29.12;46.38;100061.84;4965112;28;45473;-76
2021/06/17 03:35:01;;;;;;;;;7.75;6.50;;;;;29.11;46.51;100040.47;4965291;28;48216;-76
2021/06/17 03:37:27;;;;;;;;;8.75;8.25;;;;;29.09;46.31;100002.09;4965155;28;45366;-76
2021/06/17 03:39:53;;;;;;;;;8.00;8.00;;;;;29.08;46.56;99977.06;4981630;28;45499;-76
2021/06/17 03:42:18;;;;;;;;;8.25;7.50;;;;;29.07;46.52;99985.25;4965114;28;45630;-76
2021/06/17 03:44:44;;;;;;;;;11.25;9.50;;;;;29.07;45.90;99969.97;4981129;28;50758;-76
2021/06/17 03:47:11;;;;;;;;;8.75;8.50;;;;;29.06;46.37;99970.97;4980773;28;60585;-76
2021/06/17 03:49:36;;;;;;;;;8.75;8.75;;;;;29.07;46.28;99998.69;4965556;28;45219;-76
2021/06/17 03:52:02;;;;;;;;;9.50;9.50;;;;;29.05;46.27;100023.00;4977226;28;45672;-76
2021/06/17 03:54:28;;;;;;;;;7.50;7.50;;;;;29.01;46.40;100032.25;4981157;28;45787;-76
2021/06/17 03:56:55;;;;;;;;;8.25;8.25;;;;;29.01;46.48;100032.25;4964906;28;45254;-76
2021/06/17 03:59:22;;;;;;;;;11.25;8.50;;;;;29.03;46.22;100038.41;4972198;28;45346;-76
2021/06/17 04:01:48;;;;;;;;;7.50;7.25;;;;;29.02;46.53;100052.81;4999322;28;45336;-76
2021/06/17 04:04:13;;;;;;;;;9.50;9.00;;;;;29.02;46.68;100070.72;4981270;28;45370;-76
2021/06/17 04:06:38;;;;;;;;;12.25;9.00;;;;;29.04;46.25;100066.13;4980416;28;56318;-76
2021/06/17 04:09:05;;;;;;;;;10.00;10.00;;;;;29.00;46.83;100066.34;4964793;28;46830;-76
2021/06/17 04:11:30;;;;;;;;;6.75;6.75;;;;;29.00;46.70;100057.41;4964755;28;45324;-76
2021/06/17 04:13:55;;;;;;;;;10.00;10.00;;;;;28.96;46.74;100045.22;4972509;28;45984;-76
2021/06/17 04:16:22;;;;;;;;;10.50;7.50;;;;;28.97;46.46;100044.25;4985365;28;69560;-76
2021/06/17 04:18:48;;;;;;;;;9.00;8.50;;;;;28.99;46.05;100035.06;4965209;28;45294;-76
2021/06/17 04:21:14;;;;;;;;;8.00;7.25;;;;;28.99;46.28;100018.94;4980698;28;45259;-76
2021/06/17 04:23:40;;;;;;;;;8.00;8.00;;;;;28.98;46.82;100021.75;4964592;28;46503;-76
2021/06/17 04:26:06;;;;;;;;;8.50;7.75;;;;;28.97;46.17;100017.38;4980091;28;45267;-76
2021/06/17 04:28:31;;;;;;;;;8.75;6.00;;;;;28.91;46.85;100031.28;4963993;28;45621;-76
2021/06/17 04:30:57;;;;;;;;;9.25;8.25;;;;;28.90;46.56;100045.69;4964030;28;45341;-77
2021/06/17 04:33:24;;;;;;;;;8.25;7.75;;;;;28.89;47.04;100058.25;4980625;28;45453;-76
2021/06/17 04:35:50;;;;;;;;;7.25;6.50;;;;;28.87;47.05;100037.84;4980554;28;45306;-76
2021/06/17 04:38:16;;;;;;;;;11.00;9.00;;;;;28.87;46.43;100048.59;4980924;28;45488;-76
2021/06/17 04:40:42;;;;;;;;;7.75;7.75;;;;;28.88;46.48;100050.31;4981738;28;45204;-76
2021/06/17 04:43:08;;;;;;;;;9.75;8.00;;;;;28.88;47.28;100045.78;4980353;28;45324;-77
2021/06/17 04:45:34;;;;;;;;;9.50;9.00;;;;;28.84;47.25;100019.25;4993342;28;45239;-77
2021/06/17 04:48:00;;;;;;;;;8.25;7.25;;;;;28.88;47.25;100034.19;4980582;28;45447;-77
2021/06/17 04:50:26;;;;;;;;;8.00;8.00;;;;;28.89;47.24;100046.63;4964204;28;45441;-76
2021/06/17 04:52:51;;;;;;;;;8.00;8.00;;;;;28.92;47.41;100035.66;4983290;28;45962;-77
2021/06/17 04:55:17;;;;;;;;;8.00;8.00;;;;;28.91;47.46;100039.34;4986140;28;45408;-76
2021/06/17 04:57:43;;;;;;;;;11.50;10.50;;;;;28.85;47.54;100040.66;4981576;28;45422;-89
2021/06/17 05:00:09;;;;;;;;;10.50;9.25;;;;;28.68;48.15;100033.91;4986694;28;66498;-73
2021/06/17 05:02:34;;;;;;;;;11.00;10.00;;;;;28.49;48.28;100036.28;4980249;28;46378;-74
2021/06/17 05:04:59;;;;;;;;;11.75;10.25;;;;;28.37;48.55;100039.91;4977539;28;45262;-87
2021/06/17 05:07:50;;;;;;;;;12.00;8.75;;;;;28.25;48.70;100040.81;4948615;28;47067;-73
2021/06/17 05:12:54;;;;;;;;;10.00;9.25;;;;;28.03;48.63;100037.03;4980979;28;45738;-77
2021/06/17 05:15:20;;;;;;;;;10.75;9.50;;;;;27.90;49.21;100040.75;4982761;28;45998;-79
2021/06/17 05:17:46;;;;;;;;;9.75;9.00;;;;;27.60;50.42;100024.06;4986955;28;51751;-82
2021/06/17 05:20:14;;;;;;;;;9.00;9.00;;;;;27.37;50.10;100026.75;4987062;28;45554;-79
2021/06/17 05:22:44;;;;;;;;;7.75;7.75;;;;;27.38;51.27;100052.56;4979809;28;47641;-81
2021/06/17 05:25:10;;;;;;;;;10.25;10.25;;;;;27.28;51.30;100049.69;4985241;28;45293;-85
2021/06/17 05:27:39;;;;;;;;;10.00;9.00;;;;;27.22;51.63;100050.13;4966874;28;45385;-84
2021/06/17 05:30:05;;;;;;;;;8.00;8.00;;;;;27.21;51.45;100053.75;4970360;28;45466;-86
2021/06/17 05:32:31;;;;;;;;;7.50;7.00;;;;;27.21;51.45;100048.41;4994092;28;47286;-77
2021/06/17 05:34:56;;;;;;;;;10.75;8.50;;;;;27.16;51.42;100058.56;5021169;28;45442;-93
2021/06/17 05:37:22;;;;;;;;;9.25;8.50;;;;;27.14;51.39;100069.41;4970231;28;45420;-86
2021/06/17 05:39:47;;;;;;;;;12.50;10.25;;;;;27.10;51.84;100059.00;4967441;28;45390;-84
2021/06/17 05:42:12;;;;;;;;;10.00;9.75;;;;;27.07;52.14;100068.13;4982971;28;46442;-82
2021/06/17 05:44:38;;;;;;;;;9.00;9.00;;;;;27.07;52.02;100075.28;4985337;28;57766;-79
2021/06/17 05:47:03;;;;;;;;;11.50;10.00;;;;;27.10;52.04;100075.94;5000759;28;45289;-78
2021/06/17 05:49:29;;;;;;;;;8.25;8.25;;;;;27.13;51.60;100074.88;5000411;28;45397;-86
2021/06/17 05:51:54;;;;;;;;;9.00;9.00;;;;;27.22;51.69;100090.31;4963351;28;48624;-84
2021/06/17 05:54:20;;;;;;;;;9.50;9.50;;;;;27.27;51.60;100093.50;4951225;28;51351;-80
2021/06/17 05:56:46;;;;;;;;;8.50;8.25;;;;;27.28;51.61;100089.88;4986149;28;45187;-81
2021/06/17 05:59:11;;;;;;;;;11.75;10.50;;;;;27.35;51.60;100084.91;4985545;28;45489;-83
2021/06/17 06:01:36;;;;;;;;;13.50;9.00;;;;;27.40;51.25;100094.38;4995672;28;58499;-83
2021/06/17 06:04:02;;;;;;;;;9.25;7.75;;;;;27.50;51.23;100100.78;4969420;28;51627;-81
2021/06/17 06:06:30;;;;;;;;;8.50;8.50;;;;;27.55;51.40;100106.69;5002566;28;45252;-79
2021/06/17 06:08:56;;;;;;;;;9.50;9.00;;;;;27.60;50.98;100109.88;4966542;28;46009;-78
2021/06/17 06:11:21;;;;;;;;;8.75;8.25;;;;;27.62;51.08;100107.06;4975731;28;46972;-77
2021/06/17 06:13:47;;;;;;;;;11.75;9.75;;;;;27.72;51.38;100126.94;4985444;28;45457;-78
2021/06/17 06:16:13;;;;;;;;;10.50;10.50;;;;;27.67;51.56;100133.59;4966463;28;45393;-79
2021/06/17 06:18:38;;;;;;;;;7.00;7.00;;;;;27.64;51.10;100139.16;5019880;28;45340;-78
2021/06/17 06:21:04;;;;;;;;;15.00;12.00;;;;;27.60;51.21;100141.19;5002872;28;45427;-76
2021/06/17 06:23:32;;;;;;;;;10.25;8.25;;;;;27.50;51.19;100134.75;4986630;28;45270;-78
2021/06/17 06:25:58;;;;;;;;;6.75;6.25;;;;;27.45;50.66;100144.94;4982517;28;45355;-77
2021/06/17 06:28:24;;;;;;;;;8.25;7.25;;;;;27.41;50.90;100151.50;4982160;28;45259;-78
2021/06/17 06:30:50;;;;;;;;;7.00;6.75;;;;;27.46;50.55;100168.97;4982041;28;45461;-78
2021/06/17 06:33:17;;;;;;;;;7.00;7.00;;;;;27.43;50.84;100181.72;4957114;28;45346;-76
2021/06/17 06:35:42;;;;;;;;;10.25;9.75;;;;;27.44;51.04;100170.03;5001917;28;45368;-80
2021/06/17 06:38:08;;;;;;;;;10.50;10.50;;;;;27.45;50.80;100171.75;4968872;28;45506;-81
2021/06/17 06:40:34;;;;;;;;;9.50;9.50;;;;;27.51;51.25;100172.19;4988249;28;48473;-79
2021/06/17 06:42:59;;;;;;;;;10.00;9.75;;;;;27.50;50.78;100167.78;5019568;28;45222;-80
2021/06/17 06:45:25;;;;;;;;;7.75;7.25;;;;;27.42;50.81;100166.59;5001096;28;45951;-80
2021/06/17 06:47:56;;;;;;;;;8.00;8.00;;;;;27.45;50.16;100171.75;4956581;28;45552;-80
2021/06/17 06:50:22;;;;;;;;;7.50;6.75;;;;;27.36;50.60;100177.75;5001132;28;48385;-81
2021/06/17 06:52:51;;;;;;;;;6.50;6.50;;;;;27.40;50.61;100192.66;4988696;28;45485;-80
2021/06/17 06:55:24;;;;;;;;;8.25;7.75;;;;;27.31;50.51;100191.47;4987573;28;45327;-74
2021/06/17 06:57:49;;;;;;;;;6.75;6.25;;;;;27.24;50.69;100171.44;4963541;28;45366;-74
2021/06/17 07:00:15;;;;;;;;;9.00;7.00;;;;;27.45;50.11;100206.59;5020207;28;45788;-74
2021/06/17 07:02:43;;;;;;;;;9.00;8.00;;;;;27.53;50.49;100210.44;4977701;28;45376;-75
2021/06/17 07:05:09;;;;;;;;;7.25;7.00;;;;;27.60;50.52;100209.06;5007358;28;45528;-74
2021/06/17 07:07:35;;;;;;;;;8.25;7.25;;;;;27.70;50.42;100208.44;4969018;28;45569;-73
2021/06/17 07:10:04;;;;;;;;;6.75;6.75;;;;;27.80;50.56;100222.91;4968621;28;48120;-79
2021/06/17 07:12:29;;;;;;;;;6.75;6.75;;;;;27.84;50.40;100221.75;4957941;28;45573;-77
2021/06/17 07:14:57;;;;;;;;;9.75;8.00;;;;;27.81;49.69;100211.25;4970876;28;45599;-78
2021/06/17 07:17:22;;;;;;;;;9.00;9.00;;;;;27.80;50.08;100214.88;5005260;28;45388;-78
2021/06/17 07:19:57;;;;;;;;;8.00;8.00;;;;;27.72;49.97;100211.91;5001783;28;45277;-78
2021/06/17 07:22:41;;;;;;;;;7.50;7.25;;;;;27.64;50.09;100214.22;4996139;28;45274;-77
2021/06/17 07:25:52;;;;;;;;;;;;;;;;;;;;;
2021/06/17 07:28:20;;;;;;;;;8.00;7.25;;;;;27.63;49.91;100216.06;4980158;28;73174;-78
2021/06/17 07:30:45;;;;;;;;;8.00;6.75;;;;;27.64;50.12;100225.81;4974333;28;45418;-80
2021/06/17 07:33:11;;;;;;;;;11.00;8.75;;;;;27.61;49.94;100223.31;4970068;28;45777;-80
2021/06/17 07:35:36;;;;;;;;;8.50;8.50;;;;;27.66;49.63;100240.00;4993385;28;45258;-79
2021/06/17 07:38:04;;;;;;;;;11.00;8.00;;;;;27.50;49.73;100220.53;5002373;28;45262;-79
2021/06/17 07:40:32;;;;;;;;;8.00;8.00;;;;;27.47;49.83;100221.63;5004409;28;45435;-80
2021/06/17 07:42:58;;;;;;;;;6.00;5.25;;;;;27.38;50.07;100226.75;5003307;28;45361;-81
2021/06/17 07:45:26;;;;;;;;;7.00;7.00;;;;;27.46;49.61;100243.19;5002610;28;45365;-82
2021/06/17 07:47:57;;;;;;;;;7.50;7.50;;;;;27.28;49.53;100226.53;5001812;28;45180;-85
2021/06/17 07:50:22;;;;;;;;;7.25;5.75;;;;;27.29;49.66;100234.47;4988873;28;47665;-82
2021/06/17 07:52:50;;;;;;;;;7.25;6.50;;;;;27.29;50.01;100242.50;4986623;28;45334;-76
2021/06/17 07:55:16;;;;;;;;;9.50;7.00;;;;;27.39;49.95;100256.13;4997005;28;45314;-76
2021/06/17 07:57:41;;;;;;;;;6.00;6.00;;;;;27.39;49.54;100245.41;5002377;28;45238;-76
2021/06/17 08:00:07;;;;;;;;;7.50;6.00;;;;;27.34;49.45;100239.50;5008018;28;45371;-76
2021/06/17 08:02:33;;;;;;;;;4.25;4.25;;;;;27.39;49.42;100239.19;4983442;28;45248;-75
2021/06/17 08:04:58;;;;;;;;;5.00;5.00;;;;;27.45;49.31;100241.44;5000434;28;45266;-80
2021/06/17 08:07:24;;;;;;;;;7.25;6.25;;;;;27.50;48.86;100233.94;5001609;28;53640;-75
2021/06/17 08:09:50;;;;;;;;;6.75;6.75;;;;;27.58;48.91;100236.94;4983847;28;45563;-78
2021/06/17 08:12:15;;;;;;;;;5.00;4.50;;;;;27.61;48.70;100231.38;4967720;28;45451;-76
2021/06/17 08:14:41;;;;;;;;;4.00;4.00;;;;;27.66;49.12;100242.69;4983770;28;45863;-75
2021/06/17 08:17:06;;;;;;;;;6.00;5.75;;;;;27.72;48.61;100246.75;4983949;28;45380;-75
2021/06/17 08:19:32;;;;;;;;;7.75;6.50;;;;;27.76;47.98;100248.25;4967447;28;48445;-76
2021/06/17 08:21:58;;;;;;;;;5.00;5.00;;;;;27.77;47.73;100245.44;4967465;28;45625;-76
2021/06/17 08:24:24;;;;;;;;;5.00;4.00;;;;;27.81;47.71;100248.78;4967748;28;45583;-76
2021/06/17 08:26:50;;;;;;;;;4.25;4.25;;;;;27.83;47.71;100246.84;4958694;28;45160;-76
2021/06/17 08:29:15;;;;;;;;;5.25;4.50;;;;;27.94;47.32;100255.00;4985291;28;45577;-76
2021/06/17 08:31:43;;;;;;;;;5.75;5.75;;;;;27.92;46.97;100253.41;4983633;28;45401;-76
2021/06/17 08:34:11;;;;;;;;;6.50;5.00;;;;;27.84;46.58;100268.19;4984001;28;45321;-75
2021/06/17 08:36:37;;;;;;;;;4.00;4.00;;;;;27.81;46.94;100270.25;4959740;28;45508;-76
2021/06/17 08:39:03;;;;;;;;;4.25;4.25;;;;;27.80;47.11;100256.00;4985247;28;46909;-83
2021/06/17 08:41:30;;;;;;;;;4.25;3.75;;;;;27.84;46.75;100264.66;4991824;28;45448;-77
2021/06/17 08:43:55;;;;;;;;;6.25;5.25;;;;;27.80;46.80;100260.47;5004808;28;45340;-77
2021/06/17 08:46:20;;;;;;;;;4.00;4.00;;;;;27.83;47.04;100268.31;4975057;28;52503;-83
2021/06/17 08:49:15;;;;;;;;;;;;;;;;;;;;;
2021/06/17 08:55:21;;;;;;;;;4.25;4.00;;;;;27.63;47.28;100236.63;4988648;28;45233;-79
2021/06/17 08:57:49;;;;;;;;;4.50;4.50;;;;;27.78;46.63;100262.41;4959460;28;45497;-84
2021/06/17 09:00:20;;;;;;;;;3.00;3.00;;;;;27.77;46.66;100264.22;4967809;28;47413;-77
2021/06/17 09:03:04;;;;;;;;;6.00;6.00;;;;;27.75;47.38;100254.59;5010038;28;45395;-75
2021/06/17 09:05:31;;;;;;;;;6.50;6.00;;;;;27.74;47.01;100259.09;4984640;28;45576;-76
2021/06/17 09:07:57;;;;;;;;;6.00;6.00;;;;;27.77;47.45;100260.69;4967328;28;45414;-77
2021/06/17 09:10:22;;;;;;;;;5.00;4.50;;;;;27.73;47.39;100251.16;5013759;28;45396;-79
2021/06/17 09:12:50;;;;;;;;;5.50;4.75;;;;;27.86;47.30;100266.25;4994527;28;45425;-76
2021/06/17 09:15:36;;;;;;;;;5.00;4.00;;;;;27.97;47.10;100264.63;5002827;28;45500;-76
2021/06/17 09:18:23;;;;;;;;;7.25;6.00;;;;;28.05;46.83;100265.81;5002399;28;45270;-76
2021/06/17 09:20:52;;;;;;;;;5.00;5.00;;;;;28.07;46.84;100255.00;4976469;28;47717;-75
2021/06/17 09:23:20;;;;;;;;;5.00;5.00;;;;;28.21;46.55;100270.09;4984332;28;45365;-76
2021/06/17 09:25:57;;;;;;;;;4.50;4.50;;;;;28.30;46.30;100274.84;4995359;28;45311;-76
2021/06/17 09:28:23;;;;;;;;;3.50;3.50;;;;;28.35;46.68;100278.91;5020220;28;45310;-75
2021/06/17 09:30:48;;;;;;;;;6.00;4.50;;;;;28.41;46.18;100273.09;4999353;28;46434;-76
2021/06/17 09:33:17;;;;;;;;;6.25;3.50;;;;;28.48;46.51;100270.81;4966627;28;45423;-74
2021/06/17 09:35:59;;;;;;;;;4.25;4.00;;;;;28.49;45.74;100259.09;4964994;28;45416;-75
2021/06/17 09:38:41;;;;;;;;;6.00;5.25;;;;;28.50;46.42;100257.31;4970824;28;45441;-73
2021/06/17 09:41:08;;;;;;;;;7.00;7.00;;;;;28.64;45.49;100275.94;4970729;28;47016;-76
2021/06/17 09:43:42;;;;;;;;;6.50;5.75;;;;;28.68;45.88;100272.91;4978620;28;45232;-73
2021/06/17 09:46:10;;;;;;;;;4.00;4.00;;;;;28.75;45.82;100275.97;4980367;28;45259;-75
2021/06/17 09:48:35;;;;;;;;;4.50;4.50;;;;;28.80;45.42;100283.72;5000274;28;45296;-75
2021/06/17 09:51:27;;;;;;;;;8.00;5.25;;;;;28.84;45.13;100287.88;4991104;28;47075;-75
2021/06/17 09:53:54;;;;;;;;;4.75;4.75;;;;;28.86;45.02;100278.75;5003332;28;45432;-75
2021/06/17 09:56:32;;;;;;;;;4.75;4.75;;;;;28.91;44.77;100286.50;4994115;28;45384;-75
2021/06/17 09:58:57;;;;;;;;;5.00;5.00;;;;;28.95;44.53;100290.69;4964543;28;45896;-75
2021/06/17 10:01:45;;;;;;;;;6.50;4.75;;;;;28.95;44.98;100283.47;4996015;28;45494;-75
2021/06/17 10:04:13;;;;;;;;;5.00;4.50;;;;;29.03;44.07;100282.06;4986500;28;45524;-75
2021/06/17 10:06:43;;;;;;;;;5.00;5.00;;;;;29.04;44.50;100287.31;5020136;28;45225;-75
2021/06/17 10:09:13;;;;;;;;;5.50;4.50;;;;;29.07;44.62;100291.59;4986269;28;45441;-75
2021/06/17 10:11:39;;;;;;;;;4.50;3.25;;;;;29.01;43.91;100271.38;4968957;28;47103;-75
2021/06/17 10:14:05;;;;;;;;;4.00;4.00;;;;;29.11;44.31;100285.88;4985411;28;45453;-75
2021/06/17 10:16:32;;;;;;;;;6.00;5.00;;;;;29.12;44.16;100274.16;4982317;28;45286;-75
2021/06/17 10:18:58;;;;;;;;;3.00;2.25;;;;;29.14;43.58;100280.25;4955956;28;45497;-75
2021/06/17 10:21:31;;;;;;;;;5.00;5.00;;;;;29.17;44.15;100274.63;4984577;28;46609;-75
2021/06/17 10:23:57;;;;;;;;;6.00;6.00;;;;;29.13;43.60;100262.44;5001908;28;46281;-75
2021/06/17 10:26:23;;;;;;;;;6.25;5.00;;;;;29.22;43.47;100266.25;4988525;28;45516;-75
2021/06/17 10:28:52;;;;;;;;;4.75;4.75;;;;;29.22;43.33;100264.41;5012317;28;45321;-75
2021/06/17 10:31:47;;;;;;;;;4.25;3.00;;;;;29.23;43.19;100262.56;5003159;28;46354;-75
2021/06/17 10:34:22;;;;;;;;;3.50;3.50;;;;;29.22;43.64;100264.41;5002902;28;45577;-76
2021/06/17 10:37:14;;;;;;;;;7.50;4.50;;;;;29.23;43.96;100263.44;5003237;28;45441;-75
2021/06/17 10:39:42;;;;;;;;;4.00;4.00;;;;;29.22;43.66;100259.03;5005164;28;45636;-75
2021/06/17 10:42:13;;;;;;;;;5.25;5.00;;;;;29.26;44.02;100255.13;5005277;28;46396;-73
2021/06/17 10:44:47;;;;;;;;;5.50;5.50;;;;;29.26;43.98;100255.13;4985532;28;45375;-74
2021/06/17 10:47:38;;;;;;;;;5.00;4.25;;;;;29.28;43.86;100263.94;4998730;28;45481;-75
2021/06/17 10:50:13;;;;;;;;;3.75;3.75;;;;;29.30;43.97;100271.91;5003074;28;45293;-75
2021/06/17 10:52:40;;;;;;;;;6.00;4.50;;;;;29.32;43.72;100261.03;5000339;28;46797;-74
2021/06/17 10:55:13;;;;;;;;;4.50;4.50;;;;;29.33;43.39;100265.41;4988563;28;45399;-74
2021/06/17 10:57:42;;;;;;;;;5.25;5.25;;;;;29.33;43.55;100270.78;4960464;28;45266;-75
2021/06/17 11:00:26;;;;;;;;;6.25;5.00;;;;;29.32;43.83;100267.25;5021203;28;45319;-74
2021/06/17 11:02:58;;;;;;;;;5.50;5.50;;;;;29.30;43.82;100260.28;4994917;28;47315;-74
2021/06/17 11:08:16;;;;;;;;;7.00;5.75;;;;;29.33;43.93;100260.91;5002800;28;45483;-74
2021/06/17 11:10:58;;;;;;;;;3.25;3.25;;;;;29.33;43.46;100260.03;5010475;28;45588;-74
2021/06/17 11:14:03;;;;;;;;;6.00;6.00;;;;;29.35;43.81;100258.09;4970060;28;48199;-73
2021/06/17 11:16:29;;;;;;;;;4.00;4.00;;;;;29.33;43.36;100260.03;4922116;28;45563;-73
2021/06/17 11:19:09;;;;;;;;;3.00;2.00;;;;;29.35;43.33;100252.72;4875373;28;45353;-74
2021/06/17 11:21:34;;;;;;;;;6.00;6.00;;;;;29.35;42.79;100250.88;4947155;28;45465;-74
2021/06/17 11:24:13;;;;;;;;;7.75;6.00;;;;;29.35;43.47;100252.72;5002361;28;45445;-74
2021/06/17 11:26:45;;;;;;;;;5.75;4.00;;;;;29.34;43.14;100249.16;5002086;28;45424;-74
2021/06/17 11:29:15;;;;;;;;;6.00;6.00;;;;;29.35;43.44;100263.47;4969157;28;45445;-77
2021/06/17 11:31:44;;;;;;;;;6.00;5.50;;;;;29.36;43.14;100249.91;4991516;28;45319;-73
2021/06/17 11:34:11;;;;;;;;;5.75;5.00;;;;;29.37;43.58;100250.78;5003911;28;45257;-73
2021/06/17 11:36:52;;;;;;;;;3.75;3.75;;;;;29.40;43.57;100253.22;4959254;28;45962;-73
2021/06/17 11:39:25;;;;;;;;;7.00;4.75;;;;;29.39;44.16;100251.50;4984742;28;45645;-73
2021/06/17 11:41:50;;;;;;;;;5.00;5.00;;;;;29.41;43.51;100247.72;5001168;28;45188;-73